createdAt,value
2023-02-16T00:00:23.245Z,13.4
2023-02-16T00:01:39.522Z,12.8
2023-02-16T00:02:55.833Z,13.8
2023-02-16T00:04:12.125Z,13.7
2023-02-16T00:05:28.408Z,12.8
2023-02-16T00:06:44.711Z,13.4
2023-02-16T00:08:01.009Z,13.4
2023-02-16T00:10:33.591Z,13.2
2023-02-16T00:11:49.880Z,13.3
2023-02-16T00:13:06.185Z,13.4
2023-02-16T00:14:21.499Z,13.1
2023-02-16T00:15:37.787Z,12.6
2023-02-16T00:16:54.082Z,13.3
2023-02-16T00:18:10.377Z,13.5
2023-02-16T00:19:26.673Z,12.7
2023-02-16T00:20:42.977Z,13.2
2023-02-16T00:21:59.258Z,13.3
2023-02-16T00:23:15.555Z,12.4
2023-02-16T00:24:31.845Z,12.9
2023-02-16T00:25:48.144Z,13.4
2023-02-16T00:27:04.442Z,13.9
2023-02-16T00:28:20.733Z,12.7
2023-02-16T00:29:37.036Z,13.5
2023-02-16T00:30:52.352Z,13.2
2023-02-16T00:32:08.640Z,13.5
2023-02-16T00:33:24.943Z,13.4
2023-02-16T00:34:41.232Z,13.5
2023-02-16T00:35:57.516Z,13.1
2023-02-16T00:37:13.827Z,13.3
2023-02-16T00:38:30.119Z,12.5
2023-02-16T00:39:46.418Z,13.2
2023-02-16T00:41:02.707Z,13
2023-02-16T00:42:19.008Z,13.3
2023-02-16T00:43:35.298Z,13.1
2023-02-16T00:44:51.598Z,13.1
2023-02-16T00:46:07.877Z,13.3
2023-02-16T00:48:39.496Z,14
2023-02-16T00:49:55.785Z,13.1
2023-02-16T00:51:12.071Z,13.1
2023-02-16T00:52:28.368Z,13.1
2023-02-16T00:53:44.671Z,12.9
2023-02-16T00:56:17.251Z,12.7
2023-02-16T00:57:33.550Z,13
2023-02-16T00:58:49.841Z,13
2023-02-16T01:00:06.147Z,13.2
2023-02-16T01:01:22.435Z,13.2
2023-02-16T01:02:38.740Z,13.6
2023-02-16T01:03:54.038Z,13.2
2023-02-16T01:05:10.341Z,13.3
2023-02-16T01:06:26.639Z,13.3
2023-02-16T01:07:42.933Z,13.2
2023-02-16T01:08:59.223Z,13.8
2023-02-16T01:10:15.000Z,13.4
2023-02-16T01:11:31.808Z,12.7
2023-02-16T01:12:48.116Z,13.7
2023-02-16T01:14:04.398Z,13.7
2023-02-16T01:15:20.691Z,13.1
2023-02-16T01:16:36.985Z,13.3
2023-02-16T01:17:53.282Z,13
2023-02-16T01:19:09.571Z,13
2023-02-16T01:20:26.004Z,13.5
2023-02-16T01:21:42.288Z,13.1
2023-02-16T01:22:58.578Z,13.4
2023-02-16T01:24:14.880Z,13.9
2023-02-16T01:26:47.479Z,13.5
2023-02-16T01:28:03.766Z,13.7
2023-02-16T01:29:20.072Z,13.9
2023-02-16T01:30:36.353Z,13.5
2023-02-16T01:31:52.660Z,13.5
2023-02-16T01:34:25.235Z,14
2023-02-16T01:35:41.539Z,13.8
2023-02-16T01:36:56.836Z,13.8
2023-02-16T01:38:13.139Z,13.7
2023-02-16T01:39:29.425Z,13.6
2023-02-16T01:40:45.737Z,14.2
2023-02-16T01:42:02.018Z,14
2023-02-16T01:43:18.318Z,14.1
2023-02-16T01:44:34.618Z,14.1
2023-02-16T01:45:50.913Z,14.6
2023-02-16T01:47:07.215Z,14.7
2023-02-16T01:48:23.497Z,13.9
2023-02-16T01:49:39.798Z,14.1
2023-02-16T01:50:56.097Z,14.3
2023-02-16T01:52:12.385Z,14.3
2023-02-16T01:53:27.703Z,14.5
2023-02-16T01:54:43.986Z,14.7
2023-02-16T01:56:00.284Z,14.7
2023-02-16T01:57:16.573Z,14.9
2023-02-16T01:58:32.870Z,14.9
2023-02-16T01:59:49.176Z,15.3
2023-02-16T02:01:05.467Z,14.7
2023-02-16T02:02:21.766Z,14.4
2023-02-16T02:03:38.053Z,15.4
2023-02-16T02:04:54.353Z,14.9
2023-02-16T02:06:10.641Z,14.9
2023-02-16T02:07:26.952Z,14.9
2023-02-16T02:08:43.241Z,14.6
2023-02-16T02:09:58.553Z,15.1
2023-02-16T02:11:14.846Z,14.8
2023-02-16T02:12:31.132Z,14.9
2023-02-16T02:13:47.425Z,15.2
2023-02-16T02:15:03.734Z,14.9
2023-02-16T02:16:20.014Z,15.5
2023-02-16T02:17:36.315Z,15.4
2023-02-16T02:18:52.613Z,15.4
2023-02-16T02:20:08.906Z,15.6
2023-02-16T02:21:25.208Z,15.7
2023-02-16T02:22:41.502Z,16.2
2023-02-16T02:23:57.801Z,15.1
2023-02-16T02:25:14.094Z,15.6
2023-02-16T02:26:30.500Z,15.8
2023-02-16T02:27:46.793Z,16.1
2023-02-16T02:29:03.100Z,15.8
2023-02-16T02:30:19.384Z,15.9
2023-02-16T02:31:35.673Z,16
2023-02-16T02:32:51.988Z,15.9
2023-02-16T02:35:24.569Z,16.7
2023-02-16T02:36:40.866Z,16.4
2023-02-16T02:37:57.160Z,16.7
2023-02-16T02:39:13.455Z,16.4
2023-02-16T02:40:29.755Z,16.6
2023-02-16T02:43:02.341Z,17.2
2023-02-16T02:44:17.643Z,16.6
2023-02-16T02:45:33.950Z,17.1
2023-02-16T02:46:50.233Z,16.5
2023-02-16T02:48:06.531Z,17.2
2023-02-16T02:49:22.836Z,17.5
2023-02-16T02:50:39.126Z,17.2
2023-02-16T02:51:55.410Z,17.3
2023-02-16T02:53:11.709Z,17.4
2023-02-16T02:54:28.007Z,17
2023-02-16T02:55:44.302Z,18.3
2023-02-16T02:57:00.590Z,17.4
2023-02-16T02:58:16.900Z,17.7
2023-02-16T02:59:33.188Z,18.2
2023-02-16T03:00:48.504Z,17.5
2023-02-16T03:02:04.802Z,17.6
2023-02-16T03:03:21.093Z,17.8
2023-02-16T03:04:37.387Z,18.7
2023-02-16T03:05:53.688Z,17.6
2023-02-16T03:07:09.981Z,18
2023-02-16T03:08:26.271Z,18.1
2023-02-16T03:09:42.553Z,17.9
2023-02-16T03:10:58.852Z,18.4
2023-02-16T03:12:15.142Z,17.9
2023-02-16T03:13:31.438Z,18.7
2023-02-16T03:14:47.742Z,18.3
2023-02-16T03:16:04.039Z,17.7
2023-02-16T03:17:19.350Z,18.2
2023-02-16T03:18:35.634Z,18.1
2023-02-16T03:19:51.946Z,18.6
2023-02-16T03:21:08.242Z,18.3
2023-02-16T03:22:24.531Z,19.2
2023-02-16T03:23:40.821Z,18.3
2023-02-16T03:24:57.110Z,18.4
2023-02-16T03:26:13.404Z,19.3
2023-02-16T03:27:29.708Z,18.3
2023-02-16T03:28:46.005Z,18.9
2023-02-16T03:30:02.303Z,18.4
2023-02-16T03:31:18.595Z,17.6
2023-02-16T03:32:34.898Z,18.3
2023-02-16T03:33:50.201Z,19.2
2023-02-16T03:35:06.504Z,18.7
2023-02-16T03:36:22.790Z,18.9
2023-02-16T03:37:39.079Z,19.7
2023-02-16T03:38:55.376Z,18.9
2023-02-16T03:40:11.688Z,18.4
2023-02-16T03:41:27.970Z,19.1
2023-02-16T03:44:00.562Z,18.7
2023-02-16T03:45:16.862Z,19.1
2023-02-16T03:46:33.152Z,18.3
2023-02-16T03:47:49.454Z,19.2
2023-02-16T03:49:05.746Z,19.9
2023-02-16T03:50:21.052Z,20.3
2023-02-16T03:51:37.346Z,20.1
2023-02-16T03:52:53.632Z,19.9
2023-02-16T03:54:09.928Z,21.7
2023-02-16T03:55:26.230Z,19.7
2023-02-16T03:56:42.534Z,21.1
2023-02-16T03:57:58.823Z,20
2023-02-16T03:59:15.109Z,20.1
2023-02-16T04:00:31.409Z,20.4
2023-02-16T04:01:47.704Z,19.3
2023-02-16T04:03:03.992Z,19.8
2023-02-16T04:04:20.298Z,20.3
2023-02-16T04:05:36.594Z,20.2
2023-02-16T04:06:51.902Z,19.6
2023-02-16T04:08:08.203Z,19
2023-02-16T04:09:24.492Z,20
2023-02-16T04:10:40.794Z,19.7
2023-02-16T04:11:57.082Z,20.2
2023-02-16T04:13:12.404Z,19.5
2023-02-16T04:14:28.687Z,20.3
2023-02-16T04:15:44.989Z,21
2023-02-16T04:17:01.290Z,19.9
2023-02-16T04:19:33.874Z,20
2023-02-16T04:20:50.155Z,20.7
2023-02-16T04:22:06.460Z,20
2023-02-16T04:23:22.761Z,20.9
2023-02-16T04:24:39.044Z,20.1
2023-02-16T04:25:55.339Z,20.5
2023-02-16T04:27:11.648Z,20.4
2023-02-16T04:28:27.937Z,20.4
2023-02-16T04:29:43.248Z,20.8
2023-02-16T04:30:59.545Z,19.8
2023-02-16T04:32:15.841Z,20.5
2023-02-16T04:33:32.135Z,20.8
2023-02-16T04:34:48.420Z,20.6
2023-02-16T04:36:04.719Z,20.7
2023-02-16T04:37:21.006Z,20.8
2023-02-16T04:38:37.310Z,20.2
2023-02-16T04:39:53.614Z,20.2
2023-02-16T04:41:09.895Z,21.3
2023-02-16T04:42:26.196Z,20.7
2023-02-16T04:43:42.489Z,21.4
2023-02-16T04:44:58.789Z,22
2023-02-16T04:46:14.103Z,22.1
2023-02-16T04:47:30.403Z,22.6
2023-02-16T04:48:46.696Z,22.8
2023-02-16T04:50:02.985Z,23.8
2023-02-16T04:51:19.280Z,21.7
2023-02-16T04:52:35.578Z,22.4
2023-02-16T04:53:51.871Z,22
2023-02-16T04:55:08.172Z,22.1
2023-02-16T04:56:24.451Z,22.6
2023-02-16T04:57:40.747Z,22.9
2023-02-16T04:58:57.050Z,23.3
2023-02-16T05:00:13.344Z,23.1
2023-02-16T05:01:29.637Z,23.5
2023-02-16T05:02:44.938Z,23
2023-02-16T05:04:01.236Z,23.7
2023-02-16T05:05:17.528Z,23.3
2023-02-16T05:06:33.822Z,23.9
2023-02-16T05:07:50.135Z,23
2023-02-16T05:09:06.424Z,23.8
2023-02-16T05:10:22.707Z,24.5
2023-02-16T05:11:39.003Z,24.1
2023-02-16T05:12:55.298Z,23.2
2023-02-16T05:14:11.608Z,24.2
2023-02-16T05:15:27.905Z,24.4
2023-02-16T05:16:44.183Z,26.2
2023-02-16T05:18:00.482Z,28.3
2023-02-16T05:19:15.799Z,28
2023-02-16T05:20:32.103Z,26.3
2023-02-16T05:21:48.384Z,26.2
2023-02-16T05:23:04.674Z,24.2
2023-02-16T05:24:20.984Z,24.7
2023-02-16T05:25:37.273Z,24.4
2023-02-16T05:26:53.557Z,24
2023-02-16T05:28:09.860Z,25.3
2023-02-16T05:29:26.167Z,24.8
2023-02-16T05:30:42.000Z,25.9
2023-02-16T05:33:15.040Z,25.1
2023-02-16T05:34:31.341Z,25.5
2023-02-16T05:35:46.652Z,25.2
2023-02-16T05:37:02.940Z,25.8
2023-02-16T05:38:19.240Z,25
2023-02-16T05:39:35.525Z,25.2
2023-02-16T05:40:51.831Z,25.2
2023-02-16T05:42:08.131Z,25.3
2023-02-16T05:43:24.415Z,25.6
2023-02-16T05:44:40.714Z,26
2023-02-16T05:45:56.957Z,25.6
2023-02-16T05:47:13.258Z,25.6
2023-02-16T05:48:29.509Z,25.7
2023-02-16T05:49:45.746Z,26
2023-02-16T05:51:01.994Z,26.4
2023-02-16T05:52:17.293Z,26.1
2023-02-16T05:53:33.548Z,26.3
2023-02-16T05:54:49.784Z,26.5
2023-02-16T05:56:06.027Z,26.5
2023-02-16T05:57:22.277Z,25.2
2023-02-16T05:58:38.521Z,26.8
2023-02-16T05:59:54.744Z,25.6
2023-02-16T06:01:11.004Z,25.3
2023-02-16T06:02:27.234Z,25.6
2023-02-16T06:03:43.487Z,25.8
2023-02-16T06:04:59.726Z,25.8
2023-02-16T06:06:15.951Z,26.5
2023-02-16T06:07:32.198Z,26.1
2023-02-16T06:08:47.459Z,25.3
2023-02-16T06:10:03.709Z,26.1
2023-02-16T06:11:19.929Z,26.8
2023-02-16T06:13:52.424Z,25.6
2023-02-16T06:15:08.664Z,26.2
2023-02-16T06:16:24.898Z,26.7
2023-02-16T06:17:41.142Z,26.5
2023-02-16T06:18:57.395Z,27.1
2023-02-16T06:20:13.628Z,27.4
2023-02-16T06:21:29.872Z,29.2
2023-02-16T06:22:46.117Z,29.4
2023-02-16T06:24:02.351Z,29
2023-02-16T06:25:17.600Z,28.5
2023-02-16T06:26:33.838Z,27.4
2023-02-16T06:27:50.078Z,28.1
2023-02-16T06:29:06.328Z,27.5
2023-02-16T06:30:22.564Z,26
2023-02-16T06:31:38.813Z,26.5
2023-02-16T06:32:55.060Z,27.6
2023-02-16T06:34:11.285Z,27.8
2023-02-16T06:35:27.530Z,27.8
2023-02-16T06:36:43.767Z,27.7
2023-02-16T06:38:00.017Z,27.8
2023-02-16T06:39:16.247Z,26.6
2023-02-16T06:40:32.508Z,26.9
2023-02-16T06:41:47.758Z,26.1
2023-02-16T06:43:04.007Z,25.7
2023-02-16T06:44:20.235Z,26.6
2023-02-16T06:45:36.475Z,25
2023-02-16T06:46:52.729Z,26.4
2023-02-16T06:48:08.958Z,26
2023-02-16T06:49:25.206Z,26.9
2023-02-16T06:50:41.448Z,26.6
2023-02-16T06:51:57.685Z,26.1
2023-02-16T06:53:13.917Z,26.1
2023-02-16T06:54:30.157Z,27.1
2023-02-16T06:55:46.409Z,25.8
2023-02-16T06:57:02.642Z,25.6
2023-02-16T06:58:17.909Z,25
2023-02-16T06:59:34.154Z,24.3
2023-02-16T07:00:50.387Z,23.8
2023-02-16T07:02:06.621Z,24.1
2023-02-16T07:03:22.861Z,24.3
2023-02-16T07:04:39.111Z,23.4
2023-02-16T07:05:55.343Z,24.2
2023-02-16T07:07:11.583Z,24.5
2023-02-16T07:09:44.063Z,24.8
2023-02-16T07:11:00.307Z,25.1
2023-02-16T07:12:16.558Z,24.4
2023-02-16T07:13:32.808Z,24.8
2023-02-16T07:16:05.276Z,22.6
2023-02-16T07:17:20.541Z,22.4
2023-02-16T07:18:36.778Z,21.9
2023-02-16T07:19:53.019Z,23.2
2023-02-16T07:21:09.253Z,23.4
2023-02-16T07:22:25.503Z,22.8
2023-02-16T07:24:57.984Z,22.4
2023-02-16T07:26:13.250Z,21.8
2023-02-16T07:27:28.506Z,21.8
2023-02-16T07:28:44.751Z,20.7
2023-02-16T07:30:00.977Z,22.2
2023-02-16T07:31:17.225Z,21.2
2023-02-16T07:32:33.475Z,21
2023-02-16T07:33:49.709Z,19.9
2023-02-16T07:35:05.952Z,20.7
2023-02-16T07:36:22.177Z,21.3
2023-02-16T07:37:38.421Z,20.2
2023-02-16T07:40:10.915Z,20.5
2023-02-16T07:41:27.145Z,19.7
2023-02-16T07:42:43.391Z,20.2
2023-02-16T07:43:58.650Z,20.8
2023-02-16T07:45:14.890Z,19.3
2023-02-16T07:46:31.120Z,19.9
2023-02-16T07:47:47.377Z,19.6
2023-02-16T07:49:03.618Z,19.5
2023-02-16T07:50:19.854Z,19.5
2023-02-16T07:51:36.105Z,20
2023-02-16T07:52:52.331Z,18.8
2023-02-16T07:55:23.832Z,19.1
2023-02-16T07:56:39.091Z,20.1
2023-02-16T07:57:55.336Z,19.7
2023-02-16T07:59:11.567Z,19.8
2023-02-16T08:00:27.822Z,19.1
2023-02-16T08:01:44.063Z,19.1
2023-02-16T08:03:00.302Z,19.6
2023-02-16T08:04:16.534Z,19.5
2023-02-16T08:05:32.779Z,19.6
2023-02-16T08:06:48.043Z,20.2
2023-02-16T08:08:03.291Z,20.6
2023-02-16T08:09:19.542Z,19.7
2023-02-16T08:10:35.786Z,20.4
2023-02-16T08:11:52.031Z,20.1
2023-02-16T08:13:08.258Z,20.7
2023-02-16T08:14:24.514Z,19.4
2023-02-16T08:15:40.758Z,20.3
2023-02-16T08:16:56.995Z,20.1
2023-02-16T08:18:13.216Z,19.7
2023-02-16T08:19:29.471Z,20.3
2023-02-16T08:20:45.705Z,20.2
2023-02-16T08:22:01.955Z,20.1
2023-02-16T08:23:18.184Z,19.2
2023-02-16T08:25:49.690Z,19.5
2023-02-16T08:27:05.934Z,19.2
2023-02-16T08:28:21.195Z,19.4
2023-02-16T08:29:37.432Z,19.4
2023-02-16T08:30:53.665Z,19.1
2023-02-16T08:32:09.919Z,19.2
2023-02-16T08:33:26.160Z,19.2
2023-02-16T08:34:42.387Z,19.7
2023-02-16T08:35:58.634Z,19.4
2023-02-16T08:37:14.871Z,19.3
2023-02-16T08:38:31.114Z,19.4
2023-02-16T08:39:47.358Z,18.6
2023-02-16T08:41:03.588Z,18.8
2023-02-16T08:42:19.848Z,18.5
2023-02-16T08:43:36.080Z,18
2023-02-16T08:44:51.337Z,18.6
2023-02-16T08:46:07.583Z,18.2
2023-02-16T08:47:23.808Z,18.7
2023-02-16T08:48:40.061Z,18.5
2023-02-16T08:49:56.304Z,18.4
2023-02-16T08:51:12.543Z,18.7
2023-02-16T08:52:28.785Z,18.9
2023-02-16T08:53:45.022Z,18.7
2023-02-16T08:55:01.271Z,18.1
2023-02-16T08:56:17.492Z,18.3
2023-02-16T08:57:33.738Z,18
2023-02-16T08:58:49.989Z,18.1
2023-02-16T09:00:06.220Z,18.8
2023-02-16T09:01:21.474Z,17.9
2023-02-16T09:02:37.733Z,18.4
2023-02-16T09:03:53.972Z,18.1
2023-02-16T09:05:10.214Z,19
2023-02-16T09:06:26.439Z,18.9
2023-02-16T09:07:42.687Z,17.4
2023-02-16T09:08:58.924Z,17.8
2023-02-16T09:11:31.415Z,18.9
2023-02-16T09:14:03.887Z,18.7
2023-02-16T09:15:20.138Z,18.3
2023-02-16T09:16:36.367Z,18.7
2023-02-16T09:17:51.636Z,19.2
2023-02-16T09:19:07.863Z,18.6
2023-02-16T09:20:24.108Z,18.9
2023-02-16T09:21:40.354Z,18.3
2023-02-16T09:22:56.595Z,18.1
2023-02-16T09:24:12.837Z,18.3
2023-02-16T09:25:29.062Z,17.8
2023-02-16T09:26:45.304Z,19.1
2023-02-16T09:28:01.562Z,18.7
2023-02-16T09:29:17.789Z,18.1
2023-02-16T09:30:34.037Z,17.9
2023-02-16T09:31:50.265Z,18.6
2023-02-16T09:33:06.518Z,18.6
2023-02-16T09:34:21.778Z,17.6
2023-02-16T09:35:38.012Z,18
2023-02-16T09:36:54.248Z,17.4
2023-02-16T09:38:10.488Z,17.8
2023-02-16T09:39:26.726Z,18.2
2023-02-16T09:40:42.969Z,17.5
2023-02-16T09:41:59.217Z,17.4
2023-02-16T09:43:15.463Z,18.5
2023-02-16T09:44:31.698Z,17.9
2023-02-16T09:45:47.947Z,17.9
2023-02-16T09:47:04.188Z,18
2023-02-16T09:49:36.666Z,18
2023-02-16T09:50:53.017Z,17.6
2023-02-16T09:52:09.270Z,17.8
2023-02-16T09:53:25.499Z,17.7
2023-02-16T09:54:41.745Z,17.8
2023-02-16T09:55:57.994Z,18
2023-02-16T09:57:14.217Z,18
2023-02-16T09:58:30.458Z,17.5
2023-02-16T09:59:46.718Z,17.5
2023-02-16T10:01:02.957Z,17.2
2023-02-16T10:02:19.184Z,17.5
2023-02-16T10:03:35.425Z,17.6
2023-02-16T10:04:51.677Z,17.9
2023-02-16T10:06:07.903Z,18
2023-02-16T10:07:23.167Z,17.4
2023-02-16T10:08:39.397Z,17.8
2023-02-16T10:09:55.638Z,17.5
2023-02-16T10:12:28.125Z,17.6
2023-02-16T10:13:44.364Z,17.1
2023-02-16T10:15:00.619Z,17.3
2023-02-16T10:16:16.851Z,17.4
2023-02-16T10:17:33.096Z,17.5
2023-02-16T10:18:49.341Z,17
2023-02-16T10:20:05.566Z,17.1
2023-02-16T10:21:21.818Z,17.9
2023-02-16T10:22:38.060Z,17.7
2023-02-16T10:23:53.318Z,17.4
2023-02-16T10:25:09.548Z,16.6
2023-02-16T10:26:25.802Z,17
2023-02-16T10:27:42.039Z,17.3
2023-02-16T10:28:58.278Z,17.9
2023-02-16T10:30:14.523Z,17.5
2023-02-16T10:31:30.760Z,17.6
2023-02-16T10:32:47.004Z,17.3
2023-02-16T10:34:03.230Z,16.9
2023-02-16T10:35:19.482Z,18.2
2023-02-16T10:36:35.721Z,17.7
2023-02-16T10:37:51.959Z,18
2023-02-16T10:39:08.206Z,18.1
2023-02-16T10:40:23.457Z,17.4
2023-02-16T10:41:39.707Z,17.4
2023-02-16T10:42:55.946Z,18.1
2023-02-16T10:44:12.175Z,18.1
2023-02-16T10:45:28.410Z,18.7
2023-02-16T10:46:44.658Z,17.2
2023-02-16T10:48:00.890Z,18.6
2023-02-16T10:49:17.146Z,18.3
2023-02-16T10:50:33.385Z,18.1
2023-02-16T10:51:49.631Z,17.4
2023-02-16T10:54:22.109Z,17.5
2023-02-16T10:55:38.354Z,17.8
2023-02-16T10:56:53.610Z,17.3
2023-02-16T10:58:09.840Z,17.5
2023-02-16T10:59:26.080Z,17.5
2023-02-16T11:00:42.316Z,17.3
2023-02-16T11:01:58.568Z,17
2023-02-16T11:03:14.803Z,17.6
2023-02-16T11:04:31.047Z,17.6
2023-02-16T11:05:47.280Z,17.2
2023-02-16T11:07:03.514Z,17.5
2023-02-16T11:08:19.763Z,17.4
2023-02-16T11:09:36.001Z,18.2
2023-02-16T11:10:52.255Z,18.5
2023-02-16T11:12:08.484Z,17
2023-02-16T11:13:24.720Z,18
2023-02-16T11:14:39.977Z,17.8
2023-02-16T11:15:56.220Z,17.5
2023-02-16T11:17:12.471Z,17.4
2023-02-16T11:18:28.698Z,17.6
2023-02-16T11:21:01.177Z,18.7
2023-02-16T11:22:17.430Z,17.5
2023-02-16T11:23:33.654Z,17.9
2023-02-16T11:24:49.896Z,18.6
2023-02-16T11:26:06.148Z,18.9
2023-02-16T11:28:38.621Z,18.6
2023-02-16T11:29:54.853Z,19.1
2023-02-16T11:31:10.122Z,19.1
2023-02-16T11:32:26.366Z,20.2
2023-02-16T11:33:42.608Z,19.5
2023-02-16T11:34:58.835Z,19.6
2023-02-16T11:36:15.076Z,19.1
2023-02-16T11:37:31.317Z,19.9
2023-02-16T11:38:47.555Z,19.5
2023-02-16T11:40:03.804Z,20.1
2023-02-16T11:41:20.048Z,19.7
2023-02-16T11:42:36.285Z,19.4
2023-02-16T11:43:52.526Z,18.4
2023-02-16T11:45:08.759Z,19.3
2023-02-16T11:46:24.998Z,19
2023-02-16T11:47:40.249Z,19.1
2023-02-16T11:48:56.508Z,18.6
2023-02-16T11:50:12.735Z,19.8
2023-02-16T11:51:28.988Z,19.7
2023-02-16T11:52:45.219Z,19.3
2023-02-16T11:54:01.453Z,19.2
2023-02-16T11:55:17.697Z,18.7
2023-02-16T11:56:33.945Z,18.6
2023-02-16T11:57:50.174Z,18.8
2023-02-16T11:59:06.429Z,19.2
2023-02-16T12:00:22.652Z,19
2023-02-16T12:01:38.890Z,18.3
2023-02-16T12:02:55.136Z,18.9
2023-02-16T12:04:10.404Z,17.8
2023-02-16T12:05:26.644Z,18.9
2023-02-16T12:06:42.879Z,18.2
2023-02-16T12:07:59.118Z,18.3
2023-02-16T12:09:15.355Z,18.6
2023-02-16T12:11:47.831Z,17.7
2023-02-16T12:13:04.068Z,18.7
2023-02-16T12:14:20.308Z,18.9
2023-02-16T12:15:36.551Z,18
2023-02-16T12:16:52.801Z,18.4
2023-02-16T12:18:09.040Z,18.3
2023-02-16T12:19:25.286Z,18.2
2023-02-16T12:20:40.535Z,18.5
2023-02-16T12:21:56.767Z,18.2
2023-02-16T12:23:13.014Z,17.8
2023-02-16T12:24:29.253Z,17.9
2023-02-16T12:25:45.495Z,18.3
2023-02-16T12:27:01.729Z,17.6
2023-02-16T12:28:17.980Z,18.7
2023-02-16T12:29:34.213Z,18.3
2023-02-16T12:32:06.684Z,18.2
2023-02-16T12:33:22.942Z,18.4
2023-02-16T12:34:39.178Z,17.9
2023-02-16T12:35:55.409Z,18.2
2023-02-16T12:37:10.682Z,17.9
2023-02-16T12:38:26.914Z,17.8
2023-02-16T12:39:43.158Z,17.8
2023-02-16T12:40:59.393Z,16.8
2023-02-16T12:42:15.640Z,16.9
2023-02-16T12:43:30.892Z,17.3
2023-02-16T12:44:47.135Z,17.6
2023-02-16T12:46:03.364Z,17.8
2023-02-16T12:47:19.612Z,17
2023-02-16T12:48:35.842Z,17
2023-02-16T12:49:52.102Z,16.9
2023-02-16T12:51:08.340Z,17.2
2023-02-16T12:52:24.576Z,17.2
2023-02-16T12:53:40.819Z,16.3
2023-02-16T12:54:57.049Z,16.8
2023-02-16T12:56:13.301Z,17.2
2023-02-16T12:57:29.539Z,16.6
2023-02-16T12:58:45.777Z,16.8
2023-02-16T13:00:01.019Z,16.9
2023-02-16T13:01:17.260Z,16.2
2023-02-16T13:02:33.512Z,17.3
2023-02-16T13:03:49.750Z,16.1
2023-02-16T13:05:05.986Z,17
2023-02-16T13:07:38.465Z,16.1
2023-02-16T13:08:54.703Z,16.1
2023-02-16T13:10:10.955Z,15.8
2023-02-16T13:11:27.178Z,16.3
2023-02-16T13:12:43.438Z,15.9
2023-02-16T13:13:59.677Z,15.6
2023-02-16T13:15:15.902Z,16.7
2023-02-16T13:16:32.151Z,16
2023-02-16T13:17:47.413Z,15.8
2023-02-16T13:19:03.635Z,16.5
2023-02-16T13:20:19.891Z,16.2
2023-02-16T13:22:52.364Z,15.7
2023-02-16T13:24:08.605Z,15.9
2023-02-16T13:25:24.852Z,16.5
2023-02-16T13:26:41.079Z,16
2023-02-16T13:27:57.333Z,15.9
2023-02-16T13:29:13.575Z,16.2
2023-02-16T13:30:29.814Z,15.6
2023-02-16T13:31:46.049Z,16.1
2023-02-16T13:33:02.280Z,16
2023-02-16T13:34:17.531Z,16
2023-02-16T13:35:33.777Z,15.8
2023-02-16T13:38:06.259Z,15.8
2023-02-16T13:39:22.510Z,15.2
2023-02-16T13:40:38.744Z,15.3
2023-02-16T13:41:54.985Z,15.9
2023-02-16T13:43:11.216Z,15
2023-02-16T13:44:27.458Z,14.5
2023-02-16T13:45:43.695Z,14.6
2023-02-16T13:46:59.939Z,14.8
2023-02-16T13:48:16.186Z,15.1
2023-02-16T13:49:32.435Z,14.7
2023-02-16T13:50:47.688Z,14.7
2023-02-16T13:52:03.915Z,14.5
2023-02-16T13:53:20.156Z,15.4
2023-02-16T13:54:36.402Z,14.6
2023-02-16T13:55:52.647Z,14.4
2023-02-16T13:57:08.871Z,14.6
2023-02-16T13:58:25.111Z,14.8
2023-02-16T13:59:41.358Z,14.4
2023-02-16T14:00:57.603Z,13.9
2023-02-16T14:02:13.843Z,14.1
2023-02-16T14:03:30.078Z,14.5
2023-02-16T14:04:46.323Z,13.7
2023-02-16T14:06:02.549Z,14.2
2023-02-16T14:08:35.042Z,14.9
2023-02-16T14:09:50.297Z,14.5
2023-02-16T14:11:06.535Z,13.9
2023-02-16T14:12:22.780Z,14.5
2023-02-16T14:13:39.016Z,14.2
2023-02-16T14:14:55.256Z,13.9
2023-02-16T14:16:11.502Z,13.8
2023-02-16T14:17:27.743Z,13.2
2023-02-16T14:18:43.973Z,13.3
2023-02-16T14:20:00.216Z,13.3
2023-02-16T14:21:16.452Z,13.1
2023-02-16T14:22:32.691Z,13.5
2023-02-16T14:23:48.927Z,13.3
2023-02-16T14:25:05.182Z,13.4
2023-02-16T14:26:20.437Z,14.3
2023-02-16T14:27:36.666Z,14.3
2023-02-16T14:28:52.921Z,13.8
2023-02-16T14:30:09.159Z,14.2
2023-02-16T14:31:25.391Z,14.9
2023-02-16T14:32:41.623Z,14.6
2023-02-16T14:33:57.874Z,14.1
2023-02-16T14:35:14.115Z,14.9
2023-02-16T14:36:30.344Z,15
2023-02-16T14:37:46.585Z,14.7
2023-02-16T14:39:02.836Z,14.6
2023-02-16T14:40:19.068Z,14.1
2023-02-16T14:41:35.309Z,14.6
2023-02-16T14:42:50.566Z,14.5
2023-02-16T14:44:06.799Z,14.4
2023-02-16T14:45:23.055Z,14
2023-02-16T14:46:39.284Z,14.3
2023-02-16T14:47:55.530Z,13.9
2023-02-16T14:49:11.767Z,14.7
2023-02-16T14:50:28.011Z,14.2
2023-02-16T14:51:44.251Z,13.7
2023-02-16T14:54:16.723Z,14.3
2023-02-16T14:55:32.958Z,13.8
2023-02-16T14:56:49.217Z,13.9
2023-02-16T14:58:05.451Z,14.1
2023-02-16T14:59:20.701Z,13.9
2023-02-16T15:00:36.947Z,13.9
2023-02-16T15:01:53.182Z,14.1
2023-02-16T15:03:09.431Z,14.2
2023-02-16T15:04:25.660Z,14.1
2023-02-16T15:06:58.156Z,14.8
2023-02-16T15:08:14.384Z,14.4
2023-02-16T15:09:30.621Z,14.3
2023-02-16T15:10:46.877Z,14.7
2023-02-16T15:12:03.106Z,14.8
2023-02-16T15:13:19.342Z,14.9
2023-02-16T15:14:35.593Z,14.5
2023-02-16T15:15:51.939Z,14.5
2023-02-16T15:17:08.180Z,14.7
2023-02-16T15:18:24.439Z,15
2023-02-16T15:19:40.668Z,15.1
2023-02-16T15:20:56.916Z,15.1
2023-02-16T15:22:13.151Z,15.5
2023-02-16T15:23:29.388Z,15.6
2023-02-16T15:24:45.631Z,15.5
2023-02-16T15:26:01.861Z,15.6
2023-02-16T15:27:18.100Z,14.8
2023-02-16T15:28:34.351Z,15.7
2023-02-16T15:29:50.591Z,15.8
2023-02-16T15:32:23.078Z,16.3
2023-02-16T15:33:39.309Z,15.7
2023-02-16T15:34:54.555Z,15.5
2023-02-16T15:36:10.799Z,15.6
2023-02-16T15:37:27.047Z,15.6
2023-02-16T15:39:59.528Z,16.4
2023-02-16T15:41:15.765Z,17.5
2023-02-16T15:42:32.004Z,16.4
2023-02-16T15:43:48.248Z,16.6
2023-02-16T15:45:04.481Z,17.1
2023-02-16T15:46:20.718Z,17.2
2023-02-16T15:47:36.959Z,17.6
2023-02-16T15:48:53.208Z,17.4
2023-02-16T15:50:09.440Z,17.4
2023-02-16T15:51:24.694Z,17.5
2023-02-16T15:52:40.945Z,17.6
2023-02-16T15:55:13.418Z,17.9
2023-02-16T15:56:28.678Z,17.7
2023-02-16T15:57:43.935Z,17.5
2023-02-16T15:59:00.181Z,17.2
2023-02-16T16:00:16.426Z,16.9
2023-02-16T16:01:32.651Z,16.9
2023-02-16T16:02:48.909Z,16.9
2023-02-16T16:04:05.141Z,17.2
2023-02-16T16:05:21.381Z,17.3
2023-02-16T16:07:53.858Z,17.8
2023-02-16T16:09:10.095Z,17.7
2023-02-16T16:10:26.332Z,17.4
2023-02-16T16:11:42.572Z,18.1
2023-02-16T16:12:58.815Z,18
2023-02-16T16:14:15.069Z,17.4
2023-02-16T16:15:30.326Z,18
2023-02-16T16:16:46.545Z,17.7
2023-02-16T16:18:02.803Z,18.3
2023-02-16T16:20:35.268Z,18.6
2023-02-16T16:21:50.547Z,18.5
2023-02-16T16:23:05.798Z,18
2023-02-16T16:24:22.030Z,18.3
2023-02-16T16:25:38.000Z,18.2
2023-02-16T16:26:54.514Z,19.4
2023-02-16T16:28:10.761Z,18.3
2023-02-16T16:29:26.989Z,18.3
2023-02-16T16:30:43.228Z,17.9
2023-02-16T16:31:59.464Z,17.5
2023-02-16T16:33:15.705Z,19.1
2023-02-16T16:34:31.950Z,20.7
2023-02-16T16:35:47.219Z,19.9
2023-02-16T16:37:02.470Z,21.4
2023-02-16T16:38:18.708Z,21.8
2023-02-16T16:40:51.185Z,21.9
2023-02-16T16:42:07.424Z,22
2023-02-16T16:43:23.672Z,20.6
2023-02-16T16:44:39.911Z,21.5
2023-02-16T16:45:56.140Z,21.2
2023-02-16T16:47:12.395Z,20.9
2023-02-16T16:48:28.631Z,20.6
2023-02-16T16:49:44.861Z,20.9
2023-02-16T16:51:01.100Z,19.3
2023-02-16T16:52:17.352Z,19.1
2023-02-16T16:53:32.596Z,19.3
2023-02-16T16:54:48.847Z,18.5
2023-02-16T16:56:05.093Z,18.6
2023-02-16T16:57:21.331Z,18.3
2023-02-16T16:58:36.579Z,19.1
2023-02-16T16:59:52.889Z,19.1
2023-02-16T17:01:09.171Z,19.8
2023-02-16T17:02:25.474Z,20.1
2023-02-16T17:03:40.777Z,20.2
2023-02-16T17:04:57.071Z,20.8
2023-02-16T17:06:12.388Z,20.1
2023-02-16T17:07:28.673Z,20.1
2023-02-16T17:11:17.554Z,21.5
2023-02-16T17:12:33.850Z,22.6
2023-02-16T17:13:50.151Z,24.6
2023-02-16T17:15:06.440Z,23.9
2023-02-16T17:16:22.746Z,21.9
2023-02-16T17:17:39.027Z,21.7
2023-02-16T17:18:55.323Z,26.3
2023-02-16T17:20:10.652Z,30.6
2023-02-16T17:21:25.948Z,28.7
2023-02-16T17:22:42.259Z,25.4
2023-02-16T17:23:58.534Z,22.9
2023-02-16T17:25:14.847Z,20.7
2023-02-16T17:26:31.142Z,20.3
2023-02-16T17:27:47.420Z,20.8
2023-02-16T17:29:03.712Z,20.4
2023-02-16T17:30:20.022Z,20.9
2023-02-16T17:31:36.312Z,19.8
2023-02-16T17:34:08.891Z,20.8
2023-02-16T17:35:25.199Z,20.4
2023-02-16T17:36:41.489Z,20.2
2023-02-16T17:37:56.795Z,21
2023-02-16T17:39:13.096Z,20.7
2023-02-16T17:41:45.673Z,19.7
2023-02-16T17:43:01.000Z,19.7
2023-02-16T17:44:16.300Z,20.9
2023-02-16T17:45:32.587Z,20.2
2023-02-16T17:46:48.892Z,18.6
2023-02-16T17:49:21.473Z,19.3
2023-02-16T17:50:37.775Z,18.1
2023-02-16T17:51:54.065Z,18.5
2023-02-16T17:53:10.353Z,17.4